createdAt,value
2022-12-07T00:01:26.881Z,79.00
2022-12-07T00:04:50.284Z,79.41
2022-12-07T00:08:14.339Z,79.32
2022-12-07T00:11:38.608Z,79.66
2022-12-07T00:15:00.136Z,78.93
2022-12-07T00:18:21.676Z,78.65
2022-12-07T00:21:43.389Z,78.56
2022-12-07T00:25:05.402Z,77.32
2022-12-07T00:28:29.276Z,77.27
2022-12-07T00:31:50.913Z,77.20
2022-12-07T00:35:12.480Z,77.90
2022-12-07T00:38:35.968Z,78.49
2022-12-07T00:41:57.489Z,79.07
2022-12-07T00:45:19.132Z,80.15
2022-12-07T00:48:43.403Z,79.08
2022-12-07T00:52:04.996Z,78.39
2022-12-07T00:55:28.743Z,78.44
2022-12-07T00:58:59.886Z,77.59
2022-12-07T01:02:21.603Z,77.64
2022-12-07T01:05:58.282Z,79.34
2022-12-07T01:09:19.788Z,78.34
2022-12-07T01:12:41.920Z,78.73
2022-12-07T01:16:08.159Z,80.13
2022-12-07T01:19:29.733Z,80.61
2022-12-07T01:22:51.312Z,80.68
2022-12-07T01:26:16.070Z,79.61
2022-12-07T01:29:39.968Z,79.84
2022-12-07T01:33:04.983Z,79.31
2022-12-07T01:36:32.657Z,78.64
2022-12-07T01:39:54.272Z,80.14
2022-12-07T01:43:21.640Z,80.50
2022-12-07T01:46:47.874Z,79.06
2022-12-07T01:50:09.929Z,79.96
2022-12-07T01:53:35.156Z,80.66
2022-12-07T01:56:58.963Z,80.78
2022-12-07T02:00:20.998Z,80.99
2022-12-07T02:03:44.620Z,80.88
2022-12-07T02:07:06.673Z,80.24
2022-12-07T02:10:31.484Z,81.63
2022-12-07T02:13:54.430Z,82.17
2022-12-07T02:17:26.879Z,82.05
2022-12-07T02:20:54.252Z,81.70
2022-12-07T02:24:20.216Z,80.81
2022-12-07T02:27:47.888Z,80.46
2022-12-07T02:31:16.662Z,80.87
2022-12-07T02:34:45.604Z,81.21
2022-12-07T02:38:11.267Z,81.10
2022-12-07T02:41:51.001Z,81.16
2022-12-07T02:45:19.226Z,80.83
2022-12-07T02:48:42.652Z,80.54
2022-12-07T02:52:04.411Z,80.52
2022-12-07T02:55:40.322Z,80.66
2022-12-07T02:59:27.912Z,80.53
2022-12-07T03:02:58.889Z,80.86
2022-12-07T03:06:35.852Z,80.89
2022-12-07T03:10:00.677Z,81.14
2022-12-07T03:13:42.774Z,81.01
2022-12-07T03:17:20.587Z,80.49
2022-12-07T03:20:44.729Z,80.74
2022-12-07T03:24:12.910Z,82.12
2022-12-07T03:27:46.511Z,81.12
2022-12-07T03:31:17.143Z,81.38
2022-12-07T03:34:50.293Z,81.71
2022-12-07T03:38:14.788Z,81.05
2022-12-07T03:41:44.906Z,82.17
2022-12-07T03:45:08.215Z,81.55
2022-12-07T03:48:44.232Z,81.85
2022-12-07T03:52:14.845Z,82.07
2022-12-07T03:55:42.787Z,82.07
2022-12-07T03:59:04.690Z,82.15
2022-12-07T04:02:29.411Z,82.28
2022-12-07T04:05:53.771Z,82.39
2022-12-07T04:09:15.733Z,82.44
2022-12-07T04:12:37.361Z,81.74
2022-12-07T04:15:58.880Z,81.67
2022-12-07T04:19:22.511Z,81.97
2022-12-07T04:22:44.065Z,82.64
2022-12-07T04:26:05.822Z,83.07
2022-12-07T04:29:27.579Z,82.99
2022-12-07T04:32:49.146Z,83.02
2022-12-07T04:36:10.710Z,83.29
2022-12-07T04:39:33.892Z,83.72
2022-12-07T04:42:55.426Z,82.94
2022-12-07T04:46:20.005Z,82.86
2022-12-07T04:49:44.140Z,83.24
2022-12-07T04:53:07.951Z,83.36
2022-12-07T04:56:29.650Z,83.03
2022-12-07T04:59:54.655Z,83.54
2022-12-07T05:03:18.466Z,82.66
2022-12-07T05:06:42.358Z,82.62
2022-12-07T05:10:04.750Z,82.63
2022-12-07T05:13:26.660Z,82.29
2022-12-07T05:16:50.682Z,83.09
2022-12-07T05:20:15.483Z,83.11
2022-12-07T05:23:39.222Z,82.91
2022-12-07T05:27:00.788Z,82.67
2022-12-07T05:30:22.357Z,83.00
2022-12-07T05:33:43.956Z,83.20
2022-12-07T05:37:05.474Z,83.50
2022-12-07T05:40:30.492Z,84.85
2022-12-07T05:43:52.000Z,84.95
2022-12-07T05:47:15.181Z,85.23
2022-12-07T05:50:36.713Z,84.85
2022-12-07T05:53:58.247Z,85.19
2022-12-07T05:57:20.194Z,84.46
2022-12-07T06:00:48.054Z,84.07
2022-12-07T06:04:14.849Z,83.05
2022-12-07T06:07:36.428Z,82.95
2022-12-07T06:11:21.587Z,83.78
2022-12-07T06:14:43.512Z,84.07
2022-12-07T06:18:05.186Z,84.89
2022-12-07T06:21:27.731Z,84.06
2022-12-07T06:24:49.296Z,83.80
2022-12-07T06:28:10.828Z,84.03
2022-12-07T06:31:32.731Z,84.96
2022-12-07T06:34:54.357Z,84.32
2022-12-07T06:38:20.615Z,85.06
2022-12-07T06:41:42.161Z,84.36
2022-12-07T06:45:03.911Z,84.13
2022-12-07T06:48:25.594Z,84.38
2022-12-07T06:51:47.129Z,85.44
2022-12-07T06:55:08.740Z,85.27
2022-12-07T06:58:30.316Z,85.28
2022-12-07T07:01:51.858Z,85.10
2022-12-07T07:05:13.410Z,84.15
2022-12-07T07:08:38.007Z,84.59
2022-12-07T07:11:59.568Z,83.65
2022-12-07T07:15:25.820Z,83.82
2022-12-07T07:18:49.897Z,84.40
2022-12-07T07:22:11.475Z,85.17
2022-12-07T07:25:33.156Z,84.65
2022-12-07T07:28:56.920Z,84.21
2022-12-07T07:32:23.122Z,84.52
2022-12-07T07:35:49.578Z,84.48
2022-12-07T07:39:13.832Z,83.88
2022-12-07T07:42:35.423Z,84.44
2022-12-07T07:45:57.011Z,84.60
2022-12-07T07:49:21.011Z,84.53
2022-12-07T07:52:42.691Z,84.37
2022-12-07T07:56:04.442Z,84.75
2022-12-07T07:59:28.567Z,84.71
2022-12-07T08:02:50.108Z,84.57
2022-12-07T08:06:11.788Z,84.31
2022-12-07T08:09:35.670Z,83.86
2022-12-07T08:13:12.410Z,83.73
2022-12-07T08:16:34.083Z,83.92
2022-12-07T08:19:55.645Z,83.20
2022-12-07T08:23:17.216Z,82.91
2022-12-07T08:26:41.497Z,83.13
2022-12-07T08:30:03.635Z,83.08
2022-12-07T08:33:27.603Z,82.64
2022-12-07T08:36:49.180Z,81.91
2022-12-07T08:40:15.995Z,83.02
2022-12-07T08:43:40.904Z,83.23
2022-12-07T08:47:07.571Z,82.75
2022-12-07T08:50:32.550Z,81.79
2022-12-07T08:53:59.038Z,81.93
2022-12-07T08:57:20.583Z,80.81
2022-12-07T09:00:46.975Z,80.59
2022-12-07T09:04:08.538Z,79.34
2022-12-07T09:07:31.843Z,78.97
2022-12-07T09:10:53.522Z,79.76
2022-12-07T09:14:18.269Z,79.22
2022-12-07T09:17:39.861Z,77.55
2022-12-07T09:21:03.658Z,79.25
2022-12-07T09:24:29.961Z,79.29
2022-12-07T09:27:58.889Z,80.08
2022-12-07T09:31:23.733Z,80.16
2022-12-07T09:34:46.222Z,76.77
2022-12-07T09:38:10.165Z,76.06
2022-12-07T09:41:34.122Z,74.89
2022-12-07T09:44:55.843Z,75.63
2022-12-07T09:48:41.560Z,75.71
2022-12-07T09:52:12.042Z,75.25
2022-12-07T09:55:35.797Z,74.85
2022-12-07T09:59:03.059Z,71.94
2022-12-07T10:02:28.996Z,73.97
2022-12-07T10:05:54.404Z,73.86
2022-12-07T10:09:17.858Z,75.85
2022-12-07T10:13:16.085Z,69.81
2022-12-07T10:16:42.987Z,68.13
2022-12-07T10:20:21.872Z,66.20
2022-12-07T10:24:02.502Z,67.66
2022-12-07T10:27:34.907Z,68.07
2022-12-07T10:31:00.119Z,70.31
2022-12-07T10:34:30.733Z,71.69
2022-12-07T10:37:53.855Z,69.90
2022-12-07T10:41:21.155Z,69.15
2022-12-07T10:44:44.309Z,70.24
2022-12-07T10:48:18.776Z,68.85
2022-12-07T10:52:06.252Z,68.24
2022-12-07T10:55:59.164Z,69.36
2022-12-07T10:59:58.405Z,70.30
2022-12-07T11:03:22.818Z,71.08
2022-12-07T11:06:59.452Z,70.24
2022-12-07T11:10:30.209Z,70.74
2022-12-07T11:14:39.698Z,69.59
2022-12-07T11:18:15.841Z,70.85
2022-12-07T11:21:49.669Z,71.03
2022-12-07T11:25:14.287Z,71.48
2022-12-07T11:29:06.435Z,70.87
2022-12-07T11:32:36.467Z,69.24
2022-12-07T11:36:27.395Z,67.14
2022-12-07T11:39:57.427Z,67.32
2022-12-07T11:43:54.245Z,67.35
2022-12-07T11:47:28.556Z,67.23
2022-12-07T11:50:54.557Z,66.45
2022-12-07T11:54:24.733Z,67.67
2022-12-07T11:57:50.028Z,67.79
2022-12-07T12:01:14.761Z,67.68
2022-12-07T12:04:51.102Z,67.49
2022-12-07T12:16:34.946Z,65.59
2022-12-07T12:20:36.110Z,58.84
2022-12-07T12:24:02.797Z,56.55
2022-12-07T12:27:37.305Z,52.74
2022-12-07T12:31:13.678Z,50.75
2022-12-07T12:35:00.045Z,53.41
2022-12-07T12:38:31.055Z,50.30
2022-12-07T12:41:55.135Z,46.98
2022-12-07T12:45:26.804Z,48.59
2022-12-07T12:48:50.832Z,48.05
2022-12-07T12:52:15.418Z,53.65
2022-12-07T12:55:43.030Z,54.03
2022-12-07T12:59:22.685Z,51.35
2022-12-07T13:02:55.796Z,53.48
2022-12-07T13:06:27.453Z,55.90
2022-12-07T13:09:49.026Z,57.10
2022-12-07T13:13:16.604Z,59.32
2022-12-07T13:16:40.840Z,60.99
2022-12-07T13:20:04.415Z,61.27
2022-12-07T13:23:36.787Z,61.50
2022-12-07T13:27:00.955Z,63.59
2022-12-07T13:30:25.889Z,64.07
2022-12-07T13:33:48.722Z,64.69
2022-12-07T13:37:16.781Z,64.15
2022-12-07T13:40:39.198Z,64.85
2022-12-07T13:44:13.090Z,64.39
2022-12-07T13:47:44.214Z,64.25
2022-12-07T13:51:05.780Z,64.82
2022-12-07T13:54:27.371Z,64.90
2022-12-07T13:57:55.751Z,63.87
2022-12-07T14:01:17.553Z,63.88
2022-12-07T14:04:39.254Z,65.17
2022-12-07T14:08:26.341Z,64.71
2022-12-07T14:11:52.266Z,65.31
2022-12-07T14:15:23.751Z,66.41
2022-12-07T14:18:45.376Z,67.56
2022-12-07T14:22:18.610Z,67.16
2022-12-07T14:26:12.186Z,66.61
2022-12-07T14:29:34.654Z,67.26
2022-12-07T14:33:05.412Z,67.12
2022-12-07T14:36:29.924Z,68.21
2022-12-07T14:39:51.517Z,67.97
2022-12-07T14:43:15.550Z,68.77
2022-12-07T14:46:37.246Z,68.53
2022-12-07T14:50:01.737Z,68.89
2022-12-07T14:53:31.792Z,68.75
2022-12-07T14:56:53.337Z,68.12
2022-12-07T15:00:19.255Z,68.20
2022-12-07T15:03:40.845Z,68.29
2022-12-07T15:07:05.868Z,68.85
2022-12-07T15:10:33.065Z,69.64
2022-12-07T15:14:09.170Z,69.80
2022-12-07T15:17:32.403Z,69.51
2022-12-07T15:20:54.129Z,69.99
2022-12-07T15:24:15.766Z,70.21
2022-12-07T15:27:37.310Z,70.01
2022-12-07T15:31:15.763Z,69.27
2022-12-07T15:34:42.697Z,70.09
2022-12-07T15:38:06.325Z,69.79
2022-12-07T15:41:32.694Z,69.81
2022-12-07T15:45:07.383Z,69.97
2022-12-07T15:48:31.607Z,70.62
2022-12-07T15:51:55.393Z,70.63
2022-12-07T15:55:19.237Z,71.23
2022-12-07T15:58:40.850Z,71.26
2022-12-07T16:02:02.412Z,70.97
2022-12-07T16:05:26.302Z,70.68
2022-12-07T16:08:47.940Z,71.33
2022-12-07T16:12:10.253Z,71.66
2022-12-07T16:15:31.864Z,71.31
2022-12-07T16:18:53.516Z,71.69
2022-12-07T16:22:17.841Z,71.78
2022-12-07T16:25:39.468Z,72.79
2022-12-07T16:29:03.329Z,72.44
2022-12-07T16:32:24.852Z,72.79
2022-12-07T16:35:46.328Z,72.50
2022-12-07T16:39:07.888Z,72.69
2022-12-07T16:42:33.616Z,71.76
2022-12-07T16:46:00.275Z,73.23
2022-12-07T16:49:25.191Z,72.52
2022-12-07T16:52:46.909Z,73.02
2022-12-07T16:56:16.010Z,85.32
2022-12-07T16:59:37.566Z,87.44
2022-12-07T17:03:01.822Z,79.68
2022-12-07T17:06:25.414Z,74.41
2022-12-07T17:09:47.050Z,73.55
2022-12-07T17:13:29.770Z,67.12
2022-12-07T17:16:51.330Z,68.45
2022-12-07T17:20:13.998Z,69.86
2022-12-07T17:23:37.056Z,70.63
2022-12-07T17:27:00.861Z,70.94
2022-12-07T17:30:25.049Z,71.63
2022-12-07T17:33:49.235Z,71.65
2022-12-07T17:37:10.750Z,72.31
2022-12-07T17:40:34.988Z,72.46
2022-12-07T17:44:05.743Z,71.87
2022-12-07T17:47:27.930Z,72.05
2022-12-07T17:51:10.584Z,72.42
2022-12-07T17:54:32.397Z,72.58
2022-12-07T17:57:54.245Z,73.01
2022-12-07T18:01:20.569Z,73.06
2022-12-07T18:04:45.805Z,73.62
2022-12-07T18:08:08.382Z,73.46
2022-12-07T18:11:30.262Z,79.00
2022-12-07T18:14:54.131Z,81.72
2022-12-07T18:18:17.984Z,80.30
2022-12-07T18:21:39.851Z,79.03
2022-12-07T18:25:03.882Z,78.30
2022-12-07T18:28:25.767Z,77.26
2022-12-07T18:31:47.700Z,71.00
2022-12-07T18:35:09.613Z,72.25
2022-12-07T18:38:31.606Z,73.15
2022-12-07T18:41:53.162Z,72.54
2022-12-07T18:45:15.248Z,73.39
2022-12-07T18:48:41.693Z,74.09
2022-12-07T18:52:05.576Z,75.05
2022-12-07T18:55:29.142Z,74.67
2022-12-07T18:59:20.862Z,74.57
2022-12-07T19:02:44.762Z,73.87
2022-12-07T19:06:09.122Z,74.06
2022-12-07T19:09:30.765Z,74.09
2022-12-07T19:12:52.352Z,73.55
2022-12-07T19:16:14.094Z,81.62
2022-12-07T19:19:44.249Z,90.50
2022-12-07T19:23:05.886Z,88.74
2022-12-07T19:26:29.666Z,85.75
2022-12-07T19:29:54.652Z,85.13
2022-12-07T19:33:19.579Z,73.06
2022-12-07T19:36:41.477Z,73.22
2022-12-07T19:40:05.677Z,73.22
2022-12-07T19:43:27.317Z,73.57
2022-12-07T19:47:04.278Z,74.60
2022-12-07T19:50:27.276Z,74.38
2022-12-07T19:53:49.337Z,75.08
2022-12-07T19:57:15.197Z,75.08
2022-12-07T20:00:36.778Z,75.32
2022-12-07T20:03:58.334Z,76.29
2022-12-07T20:07:19.859Z,84.94
2022-12-07T20:10:41.491Z,83.59
2022-12-07T20:14:09.570Z,83.37
2022-12-07T20:17:33.867Z,82.02
2022-12-07T20:21:01.925Z,82.75
2022-12-07T20:24:26.343Z,82.07
2022-12-07T20:27:47.854Z,80.11
2022-12-07T20:31:09.462Z,73.48
2022-12-07T20:34:33.560Z,74.18
2022-12-07T20:37:55.351Z,73.91
2022-12-07T20:41:35.757Z,75.59
2022-12-07T20:45:02.655Z,76.85
2022-12-07T20:48:35.840Z,76.28
2022-12-07T20:51:59.999Z,76.45
2022-12-07T20:55:21.528Z,75.48
2022-12-07T20:58:43.384Z,75.22
2022-12-07T21:02:05.051Z,75.19
2022-12-07T21:05:26.842Z,75.70
2022-12-07T21:08:50.443Z,86.99
2022-12-07T21:12:12.054Z,84.69
2022-12-07T21:15:33.755Z,82.03
2022-12-07T21:19:04.251Z,81.99
2022-12-07T21:22:25.874Z,80.58
2022-12-07T21:25:47.435Z,82.35
2022-12-07T21:29:09.724Z,74.58
2022-12-07T21:32:31.350Z,74.27
2022-12-07T21:35:52.922Z,75.15
2022-12-07T21:39:17.758Z,75.53
2022-12-07T21:42:39.302Z,77.05
2022-12-07T21:46:03.221Z,77.39
2022-12-07T21:49:27.077Z,75.37
2022-12-07T21:52:48.764Z,73.91
2022-12-07T21:56:31.796Z,74.73
2022-12-07T21:59:53.363Z,74.47
2022-12-07T22:03:17.717Z,74.50
2022-12-07T22:06:41.786Z,74.14
2022-12-07T22:10:03.817Z,75.84
2022-12-07T22:13:45.313Z,75.56
2022-12-07T22:17:09.821Z,76.12
2022-12-07T22:20:31.471Z,76.48
2022-12-07T22:23:53.491Z,77.27
2022-12-07T22:27:17.679Z,77.62
2022-12-07T22:30:39.208Z,77.28
2022-12-07T22:34:00.756Z,78.29
2022-12-07T22:37:22.260Z,78.60
2022-12-07T22:40:45.915Z,79.43
2022-12-07T22:44:08.393Z,77.26
2022-12-07T22:47:29.976Z,77.56
2022-12-07T22:50:54.510Z,76.64
2022-12-07T22:54:19.440Z,77.11
2022-12-07T22:57:40.973Z,77.09
2022-12-07T23:01:07.987Z,78.46
2022-12-07T23:04:32.237Z,77.95
2022-12-07T23:07:56.404Z,77.30
2022-12-07T23:11:41.689Z,75.96
2022-12-07T23:15:05.207Z,75.55
2022-12-07T23:18:29.799Z,76.25
2022-12-07T23:21:51.390Z,77.11
2022-12-07T23:25:15.444Z,78.29
2022-12-07T23:28:38.037Z,78.00
2022-12-07T23:31:59.652Z,76.80
2022-12-07T23:35:21.336Z,77.52
2022-12-07T23:38:44.797Z,77.80
2022-12-07T23:42:08.446Z,78.38
2022-12-07T23:45:29.954Z,77.14
2022-12-07T23:48:53.735Z,77.18
2022-12-07T23:52:15.254Z,77.30
2022-12-07T23:55:47.332Z,77.23
2022-12-07T23:59:12.965Z,77.20
